Flinter Rose — PBUB — position and weather

sailwx.info

Track history (hours):
 
Tides and Currents Weather Stations Pressure Air Temp Water Temp Dewpoint Dewpoint Depression Visibility Wind Speed Wind Dir Waves Ship Positions

Flinter Rose

Last reported at 2016-Jul-26 06:21 UTC. Time now 2016-Jul-26 10:19 UTC.
Position N 42°55' E 010°35'.

Length 101 m; draft 6.5 m.

Type: Cargo ship. MMSI: 246227000.

Date/timePositionNaut miles runAvg speedWind from/ knotsBaromVisibWave heightAir tempDewpointWater temp
2016-Jul-26 06:21N 42°55' E 010°35'0 0.2
2016-Jul-26 03:27N 42°54' E 010°35'0 0.0
2016-Jul-25 23:23N 42°54' E 010°35'0 0.0
2016-Jul-25 22:17N 42°54' E 010°35'0 0.6
2016-Jul-25 21:33N 42°54' E 010°35'8 7.6
2016-Jul-25 20:32N 42°46' E 010°33'386 8.0
2016-Jul-23 20:21N 39°04' E 003°37'8 9.6
2016-Jul-23 19:31N 38°60' E 003°28'1010.1
2016-Jul-23 18:32N 38°55' E 003°17'10 9.9
2016-Jul-23 17:33N 38°50' E 003°06'11 9.8
2016-Jul-23 16:26N 38°44' E 002°54'910.0
2016-Jul-23 15:33N 38°40' E 002°44'126 9.5
2016-Jul-23 02:17N 37°36' E 000°26'6 7.6
2016-Jul-23 01:33N 37°33' E 000°20'36 9.0
2016-Jul-22 21:33N 37°15' W 000°19'12 9.8
2016-Jul-22 20:22N 37°09' W 000°31'810.1
2016-Jul-22 19:33N 37°05' W 000°40'3410.2
2016-Jul-22 16:11N 36°47' W 001°17'19810.4
2016-Jul-21 21:14N 35°57' W 005°14'4 6.5
2016-Jul-21 20:33N 35°54' W 005°18'0 0.0
2016-Jul-21 19:31N 35°54' W 005°18'0 0.0
2016-Jul-21 18:33N 35°54' W 005°18'0 0.0
2016-Jul-21 17:32N 35°54' W 005°18'0 0.0
2016-Jul-21 16:34N 35°54' W 005°18'6 6.1
2016-Jul-21 15:34N 35°57' W 005°25'11210.0
2016-Jul-21 04:25N 36°13' W 007°41'910.2
2016-Jul-21 03:33N 36°15' W 007°52'1010.1
2016-Jul-21 02:33N 36°18' W 008°04'2110.3
2016-Jul-21 00:30N 36°24' W 008°29'910.1
2016-Jul-20 23:33N 36°26' W 008°41'1010.0
2016-Jul-20 22:33N 36°29' W 008°53'1010.1
2016-Jul-20 21:33N 36°31' W 009°05'1010.1
2016-Jul-20 20:33N 36°34' W 009°17'1110.5
2016-Jul-20 19:32N 36°42' W 009°26'1010.0
2016-Jul-20 18:33N 36°50' W 009°34'1010.1
2016-Jul-20 17:32N 36°60' W 009°37'1010.2
2016-Jul-20 16:33N 37°09' W 009°39'1010.3
2016-Jul-20 15:33N 37°19' W 009°42'1010.1
2016-Jul-20 14:33N 37°29' W 009°45'1010.1
2016-Jul-20 13:33N 37°39' W 009°48'10 9.9
2016-Jul-20 12:33N 37°49' W 009°51'1010.0
2016-Jul-20 11:32N 37°59' W 009°54'1010.5
2016-Jul-20 10:33N 38°09' W 009°57'1411.4
2016-Jul-20 09:20N 38°22' W 010°01'911.1
2016-Jul-20 08:33N 38°31' W 010°03'1110.7
2016-Jul-20 07:33N 38°41' W 010°06'1110.6
2016-Jul-20 06:31N 38°52' W 010°06'1110.6
2016-Jul-20 05:30N 39°03' W 010°06'  
2016-Jul-17 14:04N 48°51' W 005°50'12910.0
2016-Jul-17 01:11N 49°57' W 003°00'711.3
2016-Jul-17 00:32N 49°60' W 002°50'3611.9
2016-Jul-16 21:31N 50°11' W 001°56'1010.3
2016-Jul-16 20:34N 50°13' W 001°41'9 9.2
2016-Jul-16 19:33N 50°15' W 001°28'8 8.2
2016-Jul-16 18:33N 50°18' W 001°15'7 7.4
2016-Jul-16 17:34N 50°20' W 001°04'8 7.7
2016-Jul-16 16:33N 50°22' W 000°53'9 9.0
2016-Jul-16 15:34N 50°24' W 000°39'10 9.7
2016-Jul-16 14:33N 50°27' W 000°25'1110.6
2016-Jul-16 13:33N 50°30' W 000°09'1110.9
2016-Jul-16 12:34N 50°33' E 000°08'1110.9
2016-Jul-16 11:33N 50°36' E 000°24'32 9.6
2016-Jul-16 08:10N 50°54' E 001°08'6 9.0
2016-Jul-16 07:27N 50°58' E 001°15'9 9.5
2016-Jul-16 06:28N 51°04' E 001°27'  
Track history (hours):
 
Tides and Currents Weather Stations Pressure Air Temp Water Temp Dewpoint Dewpoint Depression Visibility Wind Speed Wind Dir Waves Ship Positions

Flinter Rose

Last reported at 2016-Jul-26 06:21 UTC. Time now 2016-Jul-26 10:19 UTC.
Position N 42°55' E 010°35'.

Length 101 m; draft 6.5 m.

Type: Cargo ship. MMSI: 246227000.

Date/timePositionNaut miles runAvg speedWind from/ knotsBaromVisibWave heightAir tempDewpointWater temp
2016-Jul-26 06:21N 42°55' E 010°35'0 0.2
2016-Jul-26 03:27N 42°54' E 010°35'0 0.0
2016-Jul-25 23:23N 42°54' E 010°35'0 0.0
2016-Jul-25 22:17N 42°54' E 010°35'0 0.6
2016-Jul-25 21:33N 42°54' E 010°35'8 7.6
2016-Jul-25 20:32N 42°46' E 010°33'386 8.0
2016-Jul-23 20:21N 39°04' E 003°37'8 9.6
2016-Jul-23 19:31N 38°60' E 003°28'1010.1
2016-Jul-23 18:32N 38°55' E 003°17'10 9.9
2016-Jul-23 17:33N 38°50' E 003°06'11 9.8
2016-Jul-23 16:26N 38°44' E 002°54'910.0
2016-Jul-23 15:33N 38°40' E 002°44'126 9.5
2016-Jul-23 02:17N 37°36' E 000°26'6 7.6
2016-Jul-23 01:33N 37°33' E 000°20'36 9.0
2016-Jul-22 21:33N 37°15' W 000°19'12 9.8
2016-Jul-22 20:22N 37°09' W 000°31'810.1
2016-Jul-22 19:33N 37°05' W 000°40'3410.2
2016-Jul-22 16:11N 36°47' W 001°17'19810.4
2016-Jul-21 21:14N 35°57' W 005°14'4 6.5
2016-Jul-21 20:33N 35°54' W 005°18'0 0.0
2016-Jul-21 19:31N 35°54' W 005°18'0 0.0
2016-Jul-21 18:33N 35°54' W 005°18'0 0.0
2016-Jul-21 17:32N 35°54' W 005°18'0 0.0
2016-Jul-21 16:34N 35°54' W 005°18'6 6.1
2016-Jul-21 15:34N 35°57' W 005°25'11210.0
2016-Jul-21 04:25N 36°13' W 007°41'910.2
2016-Jul-21 03:33N 36°15' W 007°52'1010.1
2016-Jul-21 02:33N 36°18' W 008°04'2110.3
2016-Jul-21 00:30N 36°24' W 008°29'910.1
2016-Jul-20 23:33N 36°26' W 008°41'1010.0
2016-Jul-20 22:33N 36°29' W 008°53'1010.1
2016-Jul-20 21:33N 36°31' W 009°05'1010.1
2016-Jul-20 20:33N 36°34' W 009°17'1110.5
2016-Jul-20 19:32N 36°42' W 009°26'1010.0
2016-Jul-20 18:33N 36°50' W 009°34'1010.1
2016-Jul-20 17:32N 36°60' W 009°37'1010.2
2016-Jul-20 16:33N 37°09' W 009°39'1010.3
2016-Jul-20 15:33N 37°19' W 009°42'1010.1
2016-Jul-20 14:33N 37°29' W 009°45'1010.1
2016-Jul-20 13:33N 37°39' W 009°48'10 9.9
2016-Jul-20 12:33N 37°49' W 009°51'1010.0
2016-Jul-20 11:32N 37°59' W 009°54'1010.5
2016-Jul-20 10:33N 38°09' W 009°57'1411.4
2016-Jul-20 09:20N 38°22' W 010°01'911.1
2016-Jul-20 08:33N 38°31' W 010°03'1110.7
2016-Jul-20 07:33N 38°41' W 010°06'1110.6
2016-Jul-20 06:31N 38°52' W 010°06'1110.6
2016-Jul-20 05:30N 39°03' W 010°06'  
2016-Jul-17 14:04N 48°51' W 005°50'12910.0
2016-Jul-17 01:11N 49°57' W 003°00'711.3
2016-Jul-17 00:32N 49°60' W 002°50'3611.9
2016-Jul-16 21:31N 50°11' W 001°56'1010.3
2016-Jul-16 20:34N 50°13' W 001°41'9 9.2
2016-Jul-16 19:33N 50°15' W 001°28'8 8.2
2016-Jul-16 18:33N 50°18' W 001°15'7 7.4
2016-Jul-16 17:34N 50°20' W 001°04'8 7.7
2016-Jul-16 16:33N 50°22' W 000°53'9 9.0
2016-Jul-16 15:34N 50°24' W 000°39'10 9.7
2016-Jul-16 14:33N 50°27' W 000°25'1110.6
2016-Jul-16 13:33N 50°30' W 000°09'1110.9
2016-Jul-16 12:34N 50°33' E 000°08'1110.9
2016-Jul-16 11:33N 50°36' E 000°24'32 9.6
2016-Jul-16 08:10N 50°54' E 001°08'6 9.0
2016-Jul-16 07:27N 50°58' E 001°15'9 9.5
2016-Jul-16 06:28N 51°04' E 001°27'  

Dump ship's entire track history